Connexion

10Km

10 KM  LA COULONNOISE du 04/11/18 (Reelle 10)
Rang Dossard Nom Prénom Temps Cat Rang Cat Ecart Ecart Cat Club Vitesse Km/h Temps au Km
1 255 GHYS ALEXANDRE 00:33:14 SEM 1 00:00:00 00:00:00 ENTENTE MARITIME ATHL. 18,054 03:19
2 259 MEATS ANTOINE 00:35:43 SEM 2 00:02:29 00:02:29 AS MARCK 16,799 03:34
3 178 BRUNET Mickael 00:36:02 V1M 1 00:02:48 00:00:00 . 16,651 03:36
4 262 SOUDAIN MATTHIEU 00:36:20 SEM 3 00:03:06 00:03:06 - 16,514 03:38
5 220 LEVITRE Paco 00:37:33 ESM 1 00:04:19 00:00:00 . 15,979 03:45
6 276 FOURNIER CLEMENT 00:37:47 SEM 4 00:04:33 00:04:33 . 15,880 03:47
7 39 GRESSIER Pascal 00:37:51 SEM 5 00:04:37 00:04:37 Marckathlon 15,852 03:47
8 140 DELARACE Marc 00:38:05 SEM 6 00:04:51 00:04:51 . 15,755 03:49
9 141 DELARACE Jean-marc 00:38:06 V2M 1 00:04:52 00:00:00 Ac audomatois 15,748 03:49
10 181 LEFRANC Sebastien 00:38:17 SEM 7 00:05:03 00:05:03 . 15,673 03:50
11 134 WUYTS Maxime 00:38:39 SEM 8 00:05:25 00:05:25 . 15,524 03:52
12 190 CABOCHE Christophe 00:38:53 V1M 2 00:05:39 00:02:51 . 15,431 03:53
13 205 TIBERGHIEN Antoine 00:38:57 V1M 3 00:05:43 00:02:55 . 15,404 03:54
14 243 GOURNAY Mathieu 00:39:11 SEM 9 00:05:57 00:05:57 . 15,313 03:55
15 187 GUEUDRE Fabrice 00:39:11 SEM 10 00:05:57 00:05:57 LE DRAPEAU 15,313 03:55
16 226 COUPIN Franck 00:39:20 SEM 11 00:06:06 00:06:06 . 15,254 03:56
17 125 PREGO Nicolas 00:39:28 V1M 4 00:06:14 00:03:26 Front runners de paris 15,203 03:57
18 184 DELAPLACE Loïc 00:39:34 V1M 5 00:06:20 00:03:32 . 15,164 03:57
19 179 PIERRU Julien 00:39:40 SEM 12 00:06:26 00:06:26 Jogging club licquois 15,126 03:58
20 256 MIQUEL DAVID 00:39:47 V2M 2 00:06:33 00:01:41 marck' athlon 15,082 03:59
21 203 BARRAS Julien 00:39:47 SEM 13 00:06:33 00:06:33 As marck 15,082 03:59
22 189 DUCROCQ Arnaud 00:39:55 V1M 6 00:06:41 00:03:53 . 15,031 04:00
23 207 LEGAL Yohann 00:39:59 V1M 7 00:06:45 00:03:57 Aspaf coquelles 15,006 04:00
24 246 GUYOT Ludovic 00:39:59 V1M 8 00:06:45 00:03:57 . 15,006 04:00
25 242 MANTEZ Olivier 00:40:00 V2M 3 00:06:46 00:01:54 . 15,000 04:00
26 271 CLIPET TONY 00:40:01 V1M 9 00:06:47 00:03:59 - 14,994 04:00
27 269 STOPIN THEO 00:40:01 ESM 2 00:06:47 00:02:28 . 14,994 04:00
28 288 POCHET AURELIEN 00:40:02 SEM 14 00:06:48 00:06:48 BOULOGNE ATHLETIQUE CLUB 14,988 04:00
29 216 DEGRAVE Jean-philippe 00:40:03 SEM 15 00:06:49 00:06:49 . 14,981 04:00
30 147 BRIEZ Cyrille 00:40:16 SEM 16 00:07:02 00:07:02 . 14,901 04:02
31 290 PECQUEUX LUCAS 00:40:18 SEM 17 00:07:04 00:07:04 TRIATHLON CLUB BOULONNAIS 14,888 04:02
32 54 MACHADO Jeremie 00:40:21 V1M 10 00:07:07 00:04:19 Blanc nez triathlon62 14,870 04:02
33 116 CATEZ Damien 00:40:29 V1M 11 00:07:15 00:04:27 . 14,821 04:03
34 247 CARON Sophie 00:41:16 SEF 1 00:08:02 00:00:00 . 14,540 04:08
35 96 RENAUX Frederic 00:41:17 V1M 12 00:08:03 00:05:15 Gravelines triathlon 14,534 04:08
36 150 LASSALLE Maxime 00:41:42 ESM 3 00:08:28 00:04:09 . 14,388 04:10
37 260 HARDY FABIEN 00:41:47 V2M 4 00:08:33 00:03:41 AS MARCK 14,360 04:11
38 33 HADRI Sebastien 00:41:52 SEM 18 00:08:38 00:08:38 . 14,331 04:11
39 224 HAMMOUDA Kérim 00:41:54 SEM 19 00:08:40 00:08:40 . 14,320 04:11
40 34 RINGUET Frédéric 00:42:04 V2M 5 00:08:50 00:03:58 . 14,263 04:12
41 270 LOIRE NICOLAS 00:42:08 SEM 20 00:08:54 00:08:54 LYS CALAIS TRIATHLON 14,241 04:13
42 127 WUYTS Alexandre 00:42:14 SEM 21 00:09:00 00:09:00 . 14,207 04:13
43 72 MASSON Jérémy 00:42:30 ESM 4 00:09:16 00:04:57 . 14,118 04:15
44 277 MOUSSAY LAURENT 00:42:31 V2M 6 00:09:17 00:04:25 A.S. MARCK 14,112 04:15
45 261 MALLIOPOULOS XAVIER 00:42:38 V2M 7 00:09:24 00:04:32 BERCK A C O 14,073 04:16
46 225 CRETON Raphaël 00:42:40 V1M 13 00:09:26 00:06:38 AS MARCK 14,063 04:16
47 4 DAUX Fabien 00:42:46 V1M 14 00:09:32 00:06:44 . 14,030 04:17
48 36 LABOURE Romain 00:42:51 SEM 22 00:09:37 00:09:37 . 14,002 04:17
49 15 PIOT Benjamin 00:42:52 V1M 15 00:09:38 00:06:50 . 13,997 04:17
50 197 MASCOT David 00:42:52 V1M 16 00:09:38 00:06:50 As marck 13,997 04:17
51 185 RANSON Grégory 00:42:55 SEM 23 00:09:41 00:09:41 As marck 13,981 04:17
52 149 DEWALLE Grégory 00:43:00 SEM 24 00:09:46 00:09:46 Triathlon cote d'opale 13,953 04:18
53 180 GOUILLART Jérémy 00:43:12 SEM 25 00:09:58 00:09:58 . 13,889 04:19
54 265 DEGUINES MATHIEU 00:43:14 SEM 26 00:10:00 00:10:00 - 13,878 04:19
55 200 RIBERY Sebastien 00:43:15 V1M 17 00:10:01 00:07:13 . 13,873 04:20
56 169 MOLLER Vincent 00:43:19 SEM 27 00:10:05 00:10:05 PATRIOTE CROSS GUINES 13,851 04:20
57 175 VERDIERE Sylvain 00:43:20 SEM 28 00:10:06 00:10:06 PATRIOTE CROSS GUINES 13,846 04:20
58 113 LEFEBVRE Ludovic 00:43:29 V2M 8 00:10:15 00:05:23 . 13,798 04:21
59 45 RETAUX Claudy 00:43:31 V1M 18 00:10:17 00:07:29 . 13,788 04:21
60 159 BRISSAUD Raphaëlle 00:43:35 SEF 2 00:10:21 00:02:19 PATRIOTE CROSS GUINES 13,767 04:22
61 101 VIGNERON Francois 00:43:38 SEM 29 00:10:24 00:10:24 . 13,751 04:22
62 154 WALDHOFF Nicolas 00:43:47 SEM 30 00:10:33 00:10:33 . 13,704 04:23
63 3 DELACRE Sylvain 00:43:52 V1M 19 00:10:38 00:07:50 . 13,678 04:23
64 201 TREMBLAY Philippe 00:44:04 V2M 9 00:10:50 00:05:58 . 13,616 04:24
65 198 CRESSON Karel 00:44:06 V2M 10 00:10:52 00:06:00 . 13,605 04:25
66 232 DUQUENOY David 00:44:07 V1M 20 00:10:53 00:08:05 Jogging club licquois 13,600 04:25
67 237 AGEZ David 00:44:16 V1M 21 00:11:02 00:08:14 As marck 13,554 04:26
68 67 DUVILLARD Damien 00:44:22 SEM 31 00:11:08 00:11:08 . 13,524 04:26
69 254 BERTHE LAURENT 00:44:22 SEM 32 00:11:08 00:11:08 . 13,524 04:26
70 89 PARISSEAUX Mathieu 00:44:22 SEM 33 00:11:08 00:11:08 . 13,524 04:26
71 213 VANDENABEELE Frédéric 00:44:38 V1M 22 00:11:24 00:08:36 AS MARCK 13,443 04:28
72 210 PLATIAU Marie 00:44:40 SEF 3 00:11:26 00:03:24 . 13,433 04:28
73 211 TROCME Julien 00:44:41 V1M 23 00:11:27 00:08:39 . 13,428 04:28
74 146 BAILLET David 00:44:54 V1M 24 00:11:40 00:08:52 . 13,363 04:29
75 118 VANDENBROUCKE Nicolas 00:45:00 SEM 34 00:11:46 00:11:46 . 13,333 04:30
76 166 GEENS Mélanie 00:45:06 V1F 1 00:11:52 00:00:00 PATRIOTE CROSS GUINES 13,304 04:31
77 172 PIERRU Sigrid 00:45:19 V1F 2 00:12:05 00:00:13 PATRIOTE CROSS GUINES 13,240 04:32
78 227 DELEPIERRE Sylvain 00:45:21 V1M 25 00:12:07 00:09:19 JOGGIN CLUB LICQUOIS 13,230 04:32
79 135 DEMILLY Benoit 00:45:22 V1M 26 00:12:08 00:09:20 . 13,226 04:32
80 279 FOUQUEROLLE SEBASTIEN 00:45:23 SEM 35 00:12:09 00:12:09 . 13,221 04:32
81 73 LUCAS Xavier 00:45:31 V2M 11 00:12:17 00:07:25 . 13,182 04:33
82 222 PEREZ Marie-hélène 00:45:32 V1F 3 00:12:18 00:00:26 SO CALAIS ATHLETISME 13,177 04:33
83 285 HALLARD JEAN-FRANCOIS 00:45:35 SEM 36 00:12:21 00:12:21 . 13,163 04:34
84 98 CAMUS Sebastien 00:45:50 V1M 27 00:12:36 00:09:48 . 13,091 04:35
85 287 CARON MATHIEU 00:45:52 SEM 37 00:12:38 00:12:38 - 13,081 04:35
86 214 VANDENABEELE Virginie 00:45:52 V1F 4 00:12:38 00:00:46 AS MARCK 13,081 04:35
87 78 MICELI Grégoire 00:46:01 SEM 38 00:12:47 00:12:47 . 13,039 04:36
88 206 MAEGHT Fabrice 00:46:04 V1M 28 00:12:50 00:10:02 . 13,025 04:36
89 21 DELEGLISE Romain 00:46:09 SEM 39 00:12:55 00:12:55 . 13,001 04:37
90 143 LANDRY Jérémy 00:46:31 SEM 40 00:13:17 00:13:17 . 12,899 04:39
91 109 CONDETTE Frederic 00:46:31 V1M 29 00:13:17 00:10:29 . 12,899 04:39
92 273 LANGAGNE DYLAN 00:46:35 SEM 41 00:13:21 00:13:21 - 12,880 04:40
93 281 LAURENT DIMITRY 00:46:46 V1M 30 00:13:32 00:10:44 . 12,830 04:41
94 249 HOCHART ANTHONY 00:46:49 CAM 1 00:13:35 00:00:00 - 12,816 04:41
95 52 FRANCO Laurent 00:46:51 V2M 12 00:13:37 00:08:45 . 12,807 04:41
96 56 GOULOIS Morgan 00:46:52 SEM 42 00:13:38 00:13:38 Runners en nord 12,802 04:41
97 90 DELRUE Olivier 00:46:56 V1M 31 00:13:42 00:10:54 . 12,784 04:42
98 258 CHOUROT LUCIEN 00:47:01 V3M 1 00:13:47 00:00:00 LE DRAPEAU 12,761 04:42
99 251 VERCOUTRE VINCENT 00:47:08 SEM 43 00:13:54 00:13:54 - 12,730 04:43
100 228 PRUVOT Tony 00:47:09 V1M 32 00:13:55 00:11:07 . 12,725 04:43
101 85 HAGNERE Guillaume 00:47:13 V1M 33 00:13:59 00:11:11 . 12,707 04:43
102 66 RINGOT Mickael 00:47:15 SEM 44 00:14:01 00:14:01 . 12,698 04:44
103 208 LUCAS Rébecca 00:47:22 JUF 1 00:14:08 00:00:00 . 12,667 04:44
104 63 DESWARTVAEGER Christophe 00:47:25 V1M 34 00:14:11 00:11:23 . 12,654 04:45
105 241 DUTERNE Olivier 00:47:28 SEM 45 00:14:14 00:14:14 . 12,640 04:45
106 148 HEUMEL Claude 00:47:31 SEM 46 00:14:17 00:14:17 Soc calais 12,627 04:45
107 289 LAURENT MATHIEU 00:47:32 V1M 35 00:14:18 00:11:30 - 12,623 04:45
108 257 NAJMI AICHA 00:47:40 V1F 5 00:14:26 00:02:34 LE DRAPEAU 12,587 04:46
109 46 RIGAUX David 00:47:43 V1M 36 00:14:29 00:11:41 Bla bla run 12,574 04:46
110 167 JOLY David 00:47:45 V1M 37 00:14:31 00:11:43 PATRIOTE CROSS GUINES 12,565 04:46
111 61 DOURDIN Lionel 00:47:49 V3M 2 00:14:35 00:00:48 . 12,548 04:47
112 25 CHAPUT Frederic 00:47:55 V2M 13 00:14:41 00:09:49 . 12,522 04:47
113 191 GELDHOF Thierry 00:47:56 V1M 38 00:14:42 00:11:54 . 12,517 04:48
114 183 LEFRANC Christian 00:48:06 V2M 14 00:14:52 00:10:00 . 12,474 04:49
115 195 THIRARD Brandon 00:48:09 SEF 4 00:14:55 00:06:53 . 12,461 04:49
116 131 LOGEZ Alexandre 00:48:12 SEM 47 00:14:58 00:14:58 . 12,448 04:49
117 75 TOULOTTE Grégory 00:48:15 SEM 48 00:15:01 00:15:01 . 12,435 04:50
118 202 BAYARD Vincent 00:48:19 V1M 39 00:15:05 00:12:17 . 12,418 04:50
119 26 NATANNI Christophe 00:48:21 V2M 15 00:15:07 00:10:15 . 12,410 04:50
120 188 TREMBLAY Béatrice 00:48:25 V1F 6 00:15:11 00:03:19 . 12,392 04:51
121 173 SAMELOT Vincent 00:48:31 V1M 40 00:15:17 00:12:29 PATRIOTE CROSS GUINES 12,367 04:51
122 13 GORGE Alexandre 00:48:31 V1M 41 00:15:17 00:12:29 . 12,367 04:51
123 267 SBARDELLA REMY 00:48:32 SEM 49 00:15:18 00:15:18 12,363 04:51
124 40 MAZZIA Pauline 00:48:32 SEF 5 00:15:18 00:07:16 . 12,363 04:51
125 240 CALMANT Beverley 00:48:33 V1F 7 00:15:19 00:03:27 As marck 12,358 04:51
126 280 MOLENBERGHS LAURENT 00:48:33 V2M 16 00:15:19 00:10:27 A.S. MARCK 12,358 04:51
127 123 ETCHEPARE Jean-philippe 00:48:34 SEM 50 00:15:20 00:15:20 . 12,354 04:51
128 126 GAUDIN Louise 00:48:44 SEF 6 00:15:30 00:07:28 . 12,312 04:52
129 275 COUVELARD FREDERIQUE 00:48:51 V2F 1 00:15:37 00:00:00 . 12,282 04:53
130 274 PECQUET FRANCK 00:48:54 V2M 17 00:15:40 00:10:48 . 12,270 04:53
131 71 MUCHERY Benoit 00:48:57 SEM 51 00:15:43 00:15:43 . 12,257 04:54
132 128 GAILLARD Pascal 00:48:58 V2M 18 00:15:44 00:10:52 . 12,253 04:54
133 24 RENIER Olivier 00:48:58 V2M 19 00:15:44 00:10:52 Decathlon calais 12,253 04:54
134 22 LEMATTRE Eric 00:48:59 V1M 42 00:15:45 00:12:57 . 12,249 04:54
135 35 LEMAIRE Emmanuel 00:48:59 V1M 43 00:15:45 00:12:57 . 12,249 04:54
136 139 ANSEL Nicolas 00:49:01 SEM 52 00:15:47 00:15:47 . 12,241 04:54
137 88 DELBEC Gérard 00:49:05 V2M 20 00:15:51 00:10:59 . 12,224 04:55
138 194 THOMAS Christopher 00:49:07 SEM 53 00:15:53 00:15:53 . 12,216 04:55
139 253 LIMOUSIN FLORENT 00:49:13 V2M 21 00:15:59 00:11:07 . 12,191 04:55
140 138 GAILLARD Patrice 00:49:14 V1M 44 00:16:00 00:13:12 . 12,187 04:55
141 164 DENEZ Christelle 00:49:23 V2F 2 00:16:09 00:00:32 PATRIOTE CROSS GUINES 12,150 04:56
142 170 OUART Christophe 00:49:24 V1M 45 00:16:10 00:13:22 PATRIOTE CROSS GUINES 12,146 04:56
143 121 DERAM Tony 00:49:25 V1M 46 00:16:11 00:13:23 . 12,142 04:57
144 176 DEMARQUET Vincent 00:49:28 SEM 54 00:16:14 00:16:14 . 12,129 04:57
145 192 SEGUIN Didier 00:49:31 V2M 22 00:16:17 00:11:25 . 12,117 04:57
146 230 EVRARD Claire 00:49:36 SEF 7 00:16:22 00:08:20 . 12,097 04:58
147 165 GAVOIS Jimmy 00:49:39 V1M 47 00:16:25 00:13:37 PATRIOTE CROSS GUINES 12,085 04:58
148 171 PIEDBOIS Willy 00:49:41 V1M 48 00:16:27 00:13:39 PATRIOTE CROSS GUINES 12,076 04:58
149 100 DUVIEUXBOURG David 00:49:42 SEM 55 00:16:28 00:16:28 . 12,072 04:58
150 133 SCAT Ludovic 00:49:52 SEM 56 00:16:38 00:16:38 . 12,032 04:59
151 108 CIROT Alexandre 00:49:52 V1M 49 00:16:38 00:13:50 . 12,032 04:59
152 97 LIANNE Ludovic 00:49:58 V2M 23 00:16:44 00:11:52 . 12,008 05:00
153 104 FOURNY Johann 00:50:04 V1M 50 00:16:50 00:14:02 . 11,984 05:00
154 65 CATEZ Stephane 00:50:09 SEM 57 00:16:55 00:16:55 . 11,964 05:01
155 27 PICHARD Franck 00:50:12 V1M 51 00:16:58 00:14:10 . 11,952 05:01
156 16 VASSEUR Jerome 00:50:18 SEM 58 00:17:04 00:17:04 . 11,928 05:02
157 219 BALLE Laurent 00:50:20 V1M 52 00:17:06 00:14:18 . 11,921 05:02
158 292 LACROIX EMMANUEL 00:50:21 SEM 59 00:17:07 00:17:07 . 11,917 05:02
159 49 GAUTHIER Eric 00:50:21 V2M 24 00:17:07 00:12:15 Team valeric 11,917 05:02
160 223 PEREZ Rafael 00:50:30 V3M 3 00:17:16 00:03:29 . 11,881 05:03
161 272 DELEU MANON 00:50:37 ESF 1 00:17:23 00:00:00 - 11,854 05:04
162 28 MESSIANT Dominique 00:50:51 V3M 4 00:17:37 00:03:50 . 11,799 05:05
163 132 RENAUX Franck 00:50:56 SEM 60 00:17:42 00:17:42 . 11,780 05:06
164 145 HOCHART Stig 00:50:56 V1M 53 00:17:42 00:14:54 . 11,780 05:06
165 186 CADET Jean-noël 00:51:03 V1M 54 00:17:49 00:15:01 . 11,753 05:06
166 32 DENOEUD Olivia 00:51:10 V1F 8 00:17:56 00:06:04 Blanc nez triathlon 11,726 05:07
167 44 MEURY Katy 00:51:11 SEF 8 00:17:57 00:09:55 . 11,723 05:07
168 38 TRONET Sébastien 00:51:17 SEM 61 00:18:03 00:18:03 . 11,700 05:08
169 177 BOULANGER Liliane 00:51:18 V2F 3 00:18:04 00:02:27 . 11,696 05:08
170 137 LANNOY Bruno 00:51:36 V2M 25 00:18:22 00:13:30 . 11,628 05:10
171 212 MORIEUX Emilie 00:51:40 SEF 9 00:18:26 00:10:24 . 11,613 05:10
172 160 CARBONNIER Sébastien 00:51:43 V1M 55 00:18:29 00:15:41 PATRIOTE CROSS GUINES 11,602 05:10
173 10 MATRAT Caroline 00:51:59 V1F 9 00:18:45 00:06:53 Soc calais 11,542 05:12
174 236 TILLOY Emma 00:51:59 V1F 10 00:18:45 00:06:53 SO CALAIS ATHLETISME 11,542 05:12
175 234 BAYART Emmanuel 00:52:00 V1M 56 00:18:46 00:15:58 SO CALAIS ATHLETISME 11,538 05:12
176 233 HOCHART Jérôme 00:52:00 V1M 57 00:18:46 00:15:58 . 11,538 05:12
177 235 TIERTANT Romain 00:52:00 V1M 58 00:18:46 00:15:58 SO CALAIS ATHLETISME 11,538 05:12
178 69 HEUX Florent 00:52:01 SEM 62 00:18:47 00:18:47 . 11,535 05:12
179 291 GUETTET NICOLAS 00:52:04 SEM 63 00:18:50 00:18:50 . 11,524 05:12
180 19 DUCHEMIN Emmanuel 00:52:06 V1M 59 00:18:52 00:16:04 . 11,516 05:13
181 122 FERAND Christophe 00:52:12 V1M 60 00:18:58 00:16:10 . 11,494 05:13
182 115 LEROUX Jean 00:52:13 V3M 5 00:18:59 00:05:12 . 11,491 05:13
183 20 BACQUET Stephanie 00:52:13 V1F 11 00:18:59 00:07:07 . 11,491 05:13
184 196 VASSEUR Laure 00:52:14 SEF 10 00:19:00 00:10:58 . 11,487 05:13
185 209 HAMY Isabelle 00:52:15 V2F 4 00:19:01 00:03:24 . 11,483 05:14
186 81 LEPRETRE Corentin 00:52:23 SEM 64 00:19:09 00:19:09 . 11,454 05:14
187 48 LAVIEVILLE Frederic 00:52:29 SEM 65 00:19:15 00:19:15 Runners en nord 11,432 05:15
188 11 LAUBY Teddy 00:52:45 V1M 61 00:19:31 00:16:43 . 11,374 05:17
189 50 HOUVENAGHEL Philippe 00:52:48 V2M 26 00:19:34 00:14:42 . 11,364 05:17
190 106 DEMAZEUX Franck 00:52:51 V1M 62 00:19:37 00:16:49 . 11,353 05:17
191 142 DAUWE Stephane 00:52:52 V1M 63 00:19:38 00:16:50 Team  tiunfou 11,349 05:17
192 163 DA SILVA Anne-sylvie 00:52:56 V2F 5 00:19:42 00:04:05 PATRIOTE CROSS GUINES 11,335 05:18
193 161 CATOIRE Gilles 00:52:56 V2M 27 00:19:42 00:14:50 PATRIOTE CROSS GUINES 11,335 05:18
194 120 BONO Franck 00:53:02 V1M 64 00:19:48 00:17:00 LE DRAPEAU 11,314 05:18
195 221 ROBART François 00:53:27 V2M 28 00:20:13 00:15:21 . 11,225 05:21
196 244 GOURNAY Virginie 00:53:37 SEF 11 00:20:23 00:12:21 . 11,191 05:22
197 136 LAVIEVILLE Xavier 00:53:39 V1M 65 00:20:25 00:17:37 . 11,184 05:22
198 37 PERARD Valentin 00:53:53 SEM 66 00:20:39 00:20:39 . 11,135 05:23
199 124 DUCLOIE Christian 00:53:59 V2M 29 00:20:45 00:15:53 . 11,115 05:24
200 157 DUCLOIE Sabine 00:54:00 V2F 6 00:20:46 00:05:09 . 11,111 05:24
201 130 LIVINGSTON Deborah 00:54:01 JUF 2 00:20:47 00:06:39 Cslg côte d'opale 11,108 05:24
202 119 BOUTOILLE Ludovic 00:54:03 SEM 67 00:20:49 00:20:49 Jogging club licquois 11,101 05:24
203 47 LAVIE Stéphanie 00:54:06 V1F 12 00:20:52 00:09:00 . 11,091 05:25
204 144 LECOURT Olivier 00:54:11 V2M 30 00:20:57 00:16:05 . 11,074 05:25
205 252 HARRISON JANE 00:54:14 V1F 13 00:21:00 00:09:08 . 11,063 05:25
206 215 MOLINATTI Christophe 00:54:27 V1M 66 00:21:13 00:18:25 . 11,019 05:27
207 82 TRIPLET Céline 00:54:33 SEF 12 00:21:19 00:13:17 . 10,999 05:27
208 80 ADAM Alicia 00:54:33 SEF 13 00:21:19 00:13:17 . 10,999 05:27
209 12 LEFEBVRE Johan 00:54:42 SEM 68 00:21:28 00:21:28 . 10,969 05:28
210 264 DEMILLY MORGAN 00:54:47 SEM 69 00:21:33 00:21:33 . 10,952 05:29
211 79 SAUVAGE Delphine 00:54:54 V1F 14 00:21:40 00:09:48 . 10,929 05:29
212 248 LLABRES Véronique 00:55:16 SEF 14 00:22:02 00:14:00 . 10,856 05:32
213 29 MESSIANT Francoise 00:55:21 V3F 1 00:22:07 00:00:00 . 10,840 05:32
214 286 GEST YONI 00:55:30 V1M 67 00:22:16 00:19:28 . 10,811 05:33
215 245 QUÉNEZ Virginie 00:55:32 SEF 15 00:22:18 00:14:16 . 10,804 05:33
216 110 COCQUEREL Julie 00:55:38 V1F 15 00:22:24 00:10:32 Team ard'run 10,785 05:34
217 156 HERON Cathy 00:56:00 V1F 16 00:22:46 00:10:54 . 10,714 05:36
218 74 HADDOUCHE Kader 00:56:09 V1M 68 00:22:55 00:20:07 . 10,686 05:37
219 239 CAREJE Florence 00:56:14 V2F 7 00:23:00 00:07:23 Calais 10,670 05:37
220 112 SAUVAGE Angelique 00:56:21 V1F 17 00:23:07 00:11:15 . 10,648 05:38
221 152 GONCALVES Sylvia 00:56:23 V1F 18 00:23:09 00:11:17 . 10,641 05:38
222 155 DEMILLY Peggy 00:56:28 V1F 19 00:23:14 00:11:22 . 10,626 05:39
223 168 JOSSIENS Julie 00:56:40 SEF 16 00:23:26 00:15:24 PATRIOTE CROSS GUINES 10,588 05:40
224 238 WILLIAMS Sarah 00:56:44 V1F 20 00:23:30 00:11:38 Calais 10,576 05:40
225 93 STUBERT Edwige 00:56:56 V2F 8 00:23:42 00:08:05 Wimereaux wc 10,539 05:42
226 111 MALLET Vincent 00:57:06 V1M 69 00:23:52 00:21:04 Team ard'run 10,508 05:43
227 55 LAFORGE Mylene 00:57:12 SEF 17 00:23:58 00:15:56 . 10,490 05:43
228 268 FOURDINIER GREGOIRE 00:57:12 V1M 70 00:23:58 00:21:10 PATRIOTES CROSS DE GUINES 10,490 05:43
229 204 CAPON Carla 00:57:22 SEF 18 00:24:08 00:16:06 . 10,459 05:44
230 263 MINGO ADELINE 00:57:23 SEF 19 00:24:09 00:16:07 . 10,456 05:44
231 87 RINGOT Jérôme 00:57:41 SEM 70 00:24:27 00:24:27 . 10,402 05:46
232 77 JOSSIEN Luc 00:57:46 V3M 6 00:24:32 00:10:45 . 10,387 05:47
233 68 OUGHALIME Hocine 00:57:52 SEM 71 00:24:38 00:24:38 . 10,369 05:47
234 151 MANCIER Danielle 00:57:59 V4F 1 00:24:45 00:00:00 . 10,348 05:48
235 182 LACOUR David 00:57:59 V1M 71 00:24:45 00:21:57 . 10,348 05:48
236 102 VIGNERON Emilie 00:58:35 SEF 20 00:25:21 00:17:19 . 10,242 05:51
237 6 DEVIN Marc 00:58:44 V1M 72 00:25:30 00:22:42 . 10,216 05:52
238 282 MAUFFET LAURENCE 00:58:52 V2F 9 00:25:38 00:10:01 . 10,193 05:53
239 231 DUQUENOY Hélène 00:59:00 V1F 21 00:25:46 00:13:54 Jogging club licquois 10,169 05:54
240 284 MAUFFET BERTRAND 00:59:03 V2M 31 00:25:49 00:20:57 . 10,161 05:54
241 117 CHATELAIN Alexandra 00:59:05 V1F 22 00:25:51 00:13:59 . 10,155 05:54
242 105 HERBAUT Mélanie 00:59:06 V1F 23 00:25:52 00:14:00 . 10,152 05:55
243 153 CATTEZ Jd 00:59:11 SEM 72 00:25:57 00:25:57 . 10,138 05:55
244 99 BAILLIEU Christian 00:59:14 V2M 32 00:26:00 00:21:08 LE DRAPEAU 10,129 05:55
245 1 MODOLO Fanny 00:59:14 V1F 24 00:26:00 00:14:08 LE DRAPEAU 10,129 05:55
246 70 BOCQUELET Camille 00:59:15 SEF 21 00:26:01 00:17:59 . 10,127 05:55
247 114 ADAYA KOKOU Delphine 00:59:15 SEF 22 00:26:01 00:17:59 . 10,127 05:55
248 8 COZE Kylian 00:59:25 CAM 2 00:26:11 00:12:36 . 10,098 05:56
249 42 LEFEBVRE Laetitia 00:59:57 V1F 25 00:26:43 00:14:51 . 10,008 06:00
250 43 LEFEBVRE Gregory 00:59:57 V1M 73 00:26:43 00:23:55 . 10,008 06:00
251 18 CUGNY Gaelle 01:00:10 V1F 26 00:26:56 00:15:04 . 9,972 06:01
252 76 TUEUX Jeremy 01:00:47 SEM 73 00:27:33 00:27:33 . 9,871 06:05
253 283 MAUFFET FABIEN 01:00:47 V2M 33 00:27:33 00:22:41 . 9,871 06:05
254 64 DOGIMONT Florent 01:01:44 SEM 74 00:28:30 00:28:30 Ac capellois 9,719 06:10
255 278 MINET ROGER 01:01:48 V4M 1 00:28:34 00:00:00 . 9,709 06:11
256 229 PRUVOT Theo 01:02:45 JUM 1 00:29:31 00:00:00 . 9,562 06:16
257 91 ANDRIEUX Maryvonne 01:02:50 V2F 10 00:29:36 00:13:59 . 9,549 06:17
258 103 VINCK Christine 01:02:56 V2F 11 00:29:42 00:14:05 . 9,534 06:18
259 57 HAMON Mélanie 01:03:12 SEF 23 00:29:58 00:21:56 . 9,494 06:19
260 94 PERPEROT Pauline 01:03:39 SEF 24 00:30:25 00:22:23 . 9,427 06:22
261 95 SAINT GEORGES Florian 01:03:40 SEM 75 00:30:26 00:30:26 . 9,424 06:22
262 51 HOUVENAGHELV Valerie 01:04:04 V2F 12 00:30:50 00:15:13 . 9,365 06:24
263 266 SAID SARAH 01:04:12 ESF 2 00:30:58 00:13:35 - 9,346 06:25
264 7 DELABIE Cyril 01:05:35 V1M 74 00:32:21 00:29:33 . 9,149 06:34
265 23 VANDERBIEST Gaelle 01:06:17 SEF 25 00:33:03 00:25:01 . 9,052 06:38
266 129 MAQUINGHEN Valerie 01:06:22 V1F 27 00:33:08 00:21:16 Cslg côte d'opale 9,041 06:38
267 83 PLESSIS Clémence 01:12:32 SEF 26 00:39:18 00:31:16 . 8,272 07:15
268 84 PLESSIS Romain 01:12:34 SEM 76 00:39:20 00:39:20 . 8,268 07:15